Terminal Aerodrome Forecast
Issued by NWS

Home | Current Version | Previous Version | Graphics & Text | Print | Product List | Glossary On
Versions: 1 2 3 4 5 6 7 8 9 10 11 12 13 14 15 16 17 18 19 20 21 22 23 24 25 26 27 28 29 30 31 32 33 34
000
FTUS43 KGRB 251200 AAA
TAFRHI
TAF AMD
KRHI 251241Z 2513/2612 17006KT 6SM BR SCT018 BKN120
     FM251500 22005KT P6SM SCT020 BKN035
     FM251800 24009G17KT P6SM SCT035 SCT080
     FM252100 26008KT P6SM SCT035 SCT080
     FM260100 30004KT P6SM SCT090=

USA.gov is the U.S. government's official web portal to all federal, state and local government web resources and services.